Latest Weather Observations for Murrurundi Gap

IDN60801

Issued at 3:02 pm EDT Saturday 25 February 2017 (issued every 30 minutes, with the page automatically refreshed every 10 minutes)

About weather observations | Map of weather stations | Latest weather observations for NSW | Other Formats
Station Details ID: 061392 Name: MURRURUNDI GAP AWS Lat: -31.74 Lon: 150.79 Height: 729.4 m
Data from the previous 72 hours. | See also: Recent months at Murrurundi Gap
Date/Time
EDT
Temp
°C
App
Temp
°C
Dew
Point
°C
Rel
Hum
%
Delta-T
°C
Wind Press
QNH
hPa
Press
MSL
hPa
Rain since
9am
mm
Dir  Spd
km/h
Gust
km/h
Spd
kts
Gust
kts
25/02:30pm 27.6 24.8 15.3 47 7.7 SSE 24 33 13 18 1018.8 1014.9 0.0
25/02:00pm 26.8 24.1 13.5 44 8.1 SE 20 30 11 16 1019.1 1015.2 0.0
25/01:30pm 27.8 24.8 14.8 45 8.1 SE 24 33 13 18 1019.4 1015.6 0.0
25/01:00pm 25.6 21.4 13.5 47 7.3 SE 28 39 15 21 1019.5 1015.7 0.0
25/12:30pm 24.7 20.2 13.9 51 6.6 SE 30 41 16 22 1020.0 1016.2 0.0
25/12:00pm 24.6 20.4 13.5 50 6.7 ESE 28 43 15 23 1020.4 1016.5 0.0
25/11:30am 23.6 19.3 13.2 52 6.2 ESE 28 35 15 19 1020.8 1017.0 0.0
25/11:00am 22.9 18.2 13.1 54 5.8 ESE 30 39 16 21 1020.9 1017.1 0.0
25/10:30am 22.0 16.7 12.5 54 5.6 SE 32 41 17 22 1021.1 1017.3 0.0
25/10:00am 21.1 15.3 12.8 59 4.9 SE 35 43 19 23 1021.2 1017.4 0.0
25/09:30am 20.1 15.2 14.2 69 3.5 SE 33 41 18 22 1021.1 1017.3 0.0
25/09:00am 19.0 13.8 14.5 75 2.7 SE 35 41 19 22 1020.9 1017.1 0.0
25/08:30am 17.9 14.5 15.7 87 1.3 SE 28 35 15 19 1020.7 1016.9 0.0
25/08:16am 17.3 13.2 16.0 92 0.8 SE 32 37 17 20 1020.6 1016.8 0.0
25/08:00am 16.1 12.8 16.1 100 0.0 SE 28 35 15 19 1020.5 1016.6 0.0
25/07:34am 15.3 11.3 15.3 100 0.0 SE 30 35 16 19 1020.2 1016.3 0.0
25/07:30am 15.3 11.3 15.3 100 0.0 SE 30 37 16 20 1020.2 1016.3 0.0
25/07:07am 15.3 10.8 15.3 100 0.0 SE 33 39 18 21 1019.8 1016.0 0.0
25/07:00am 15.2 10.6 15.2 100 0.0 SE 33 39 18 21 1019.8 1016.0 0.0
25/06:30am 15.3 10.4 15.3 100 0.0 SE 35 41 19 22 1019.5 1015.7 0.0
25/06:00am 15.4 10.8 15.2 99 0.1 SE 33 41 18 22 1019.2 1015.3 0.0
25/05:30am 15.7 10.9 15.5 99 0.1 SE 35 41 19 22 1019.0 1015.1 0.0
25/05:00am 15.8 11.0 15.6 99 0.1 SE 35 43 19 23 1019.1 1015.2 0.0
25/04:30am 16.0 11.7 15.5 97 0.3 SE 32 37 17 20 1019.0 1015.1 0.0
25/04:00am 16.3 12.1 15.8 97 0.3 SE 32 37 17 20 1019.0 1015.1 0.0
25/03:30am 16.3 12.1 15.7 96 0.4 SE 32 37 17 20 1019.1 1015.2 0.0
25/03:00am 16.4 12.2 15.8 96 0.4 SE 32 39 17 21 1019.0 1015.1 0.0
25/02:30am 16.6 11.8 15.6 94 0.6 SE 35 41 19 22 1019.1 1015.2 0.0
25/02:00am 16.8 12.4 15.7 93 0.7 SE 33 43 18 23 1019.3 1015.5 0.0
25/01:59am 16.8 12.4 15.7 93 0.7 SE 33 43 18 23 1019.4 1015.6 0.0
25/01:30am 17.1 12.3 15.6 91 0.9 SSE 35 44 19 24 1019.5 1015.7 0.0
25/01:00am 17.3 12.8 15.5 89 1.1 SSE 33 43 18 23 1019.6 1015.8 0.0
25/12:30am 17.7 12.5 15.5 87 1.3 SSE 37 46 20 25 1019.6 1015.8 0.0
25/12:00am 18.6 14.1 15.5 82 1.9 SSE 33 39 18 21 1019.7 1015.9 0.0
 
Date/Time
EDT
Temp
°C
App
Temp
°C
Dew
Point
°C
Rel
Hum
%
Delta-T
°C
Wind Press
QNH
hPa
Press
MSL
hPa
Rain since
9am
mm
Dir  Spd
km/h
Gust
km/h
Spd
kts
Gust
kts
24/11:30pm 19.3 15.4 15.4 78 2.4 SSE 30 41 16 22 1019.8 1016.0 0.0
24/11:00pm 21.0 17.1 14.4 66 4.0 S 28 37 15 20 1019.8 1016.0 0.0
24/10:51pm 21.8 18.4 13.7 60 4.8 SSE 24 35 13 19 1019.7 1015.9 0.0
24/10:30pm 22.4 20.4 12.6 54 5.8 SE 15 17 8 9 1020.0 1016.2 0.0
24/10:00pm 22.8 21.3 13.0 54 5.8 ESE 13 15 7 8 1019.8 1016.0 0.0
24/09:30pm 23.4 21.5 13.0 52 6.2 ESE 15 20 8 11 1019.9 1016.1 0.0
24/09:00pm 24.5 21.3 11.8 45 7.4 SE 20 26 11 14 1019.7 1015.9 0.0
24/08:30pm 23.1 18.8 13.3 54 5.9 ESE 28 35 15 19 1020.0 1016.2 0.0
24/08:12pm 24.5 20.0 11.5 44 7.6 ESE 26 39 14 21 1019.6 1015.8 0.0
24/08:00pm 24.2 21.9 11.9 46 7.2 SE 15 22 8 12 1020.2 1016.3 0.0
24/07:30pm 24.6 19.4 12.9 48 7.0 SE 32 46 17 25 1019.6 1015.8 0.0
24/07:00pm 25.1 20.6 13.9 49 6.8 SE 30 52 16 28 1019.3 1015.5 0.0
24/06:41pm 25.5 21.2 14.3 50 6.9 SE 30 50 16 27 1018.5 1014.7 0.0
24/06:30pm 26.0 22.4 14.1 47 7.3 SE 26 37 14 20 1018.5 1014.7 0.0
24/06:00pm 27.1 22.2 13.8 44 8.1 SSE 32 50 17 27 1018.1 1014.3 0.0
24/05:57pm 27.5 22.9 13.4 41 8.6 SSE 30 50 16 27 1018.0 1014.1 0.0
24/05:30pm 31.0 25.3 4.7 19 14.2 SE 24 39 13 21 1017.7 1013.8 0.0
24/05:00pm 31.8 27.1 6.1 20 14.2 ESE 20 32 11 17 1018.0 1014.1 0.0
24/04:30pm 31.7 27.1 6.7 21 13.9 SE 20 35 11 19 1018.3 1014.5 0.0
24/04:00pm 32.7 29.6 8.9 23 13.8 SE 15 24 8 13 1018.4 1014.6 0.0
24/03:30pm 32.2 28.8 9.1 24 13.4 SSE 17 28 9 15 1018.7 1014.8 0.0
24/03:00pm 32.0 28.8 10.1 26 12.9 SE 17 24 9 13 1019.2 1015.3 0.0
24/02:30pm 31.8 28.1 9.3 25 13.1 SE 19 32 10 17 1019.6 1015.8 0.0
24/02:00pm 31.2 27.9 9.4 26 12.6 SE 17 28 9 15 1020.2 1016.3 0.0
24/01:30pm 31.1 27.5 8.2 24 13.0 SE 17 30 9 16 1020.6 1016.8 0.0
24/01:00pm 30.6 26.4 8.3 25 12.7 SE 20 37 11 20 1021.1 1017.3 0.0
24/12:30pm 29.9 26.4 8.9 27 12.0 E 17 30 9 16 1021.4 1017.6 0.0
24/12:00pm 29.1 26.2 9.8 30 11.1 ESE 15 22 8 12 1022.0 1018.2 0.0
24/11:30am 28.9 27.4 13.2 38 9.6 ESE 13 20 7 11 1022.3 1018.5 0.0
24/11:00am 27.2 25.5 12.4 40 8.8 E 13 17 7 9 1022.5 1018.7 0.0
24/10:30am 27.0 25.5 13.0 42 8.5 E 13 17 7 9 1022.6 1018.8 0.0
24/10:00am 26.5 25.0 14.3 47 7.5 ESE 15 19 8 10 1022.6 1018.8 0.0
24/09:30am 24.5 22.2 13.1 49 6.8 ESE 17 20 9 11 1022.5 1018.7 0.0
24/09:00am 23.7 21.5 12.0 48 6.8 ESE 15 19 8 10 1022.2 1018.4 0.0
24/08:30am 22.6 20.4 10.7 47 6.8 ESE 13 17 7 9 1022.0 1018.2 0.0
24/08:00am 22.5 20.2 10.6 47 6.8 ESE 13 15 7 8 1021.7 1017.8 0.0
24/07:30am 23.2 22.3 11.3 47 6.9 SE 7 7 4 4 1021.3 1017.5 0.0
24/07:00am 22.0 20.0 10.2 47 6.6 SE 11 11 6 6 1021.0 1017.2 0.0
24/06:30am 21.4 19.8 10.3 49 6.3 SE 9 11 5 6 1020.8 1017.0 0.0
24/06:00am 22.2 22.4 10.7 48 6.5 CALM 0 0 0 0 1020.5 1016.6 0.0
24/05:30am 22.4 20.7 11.2 49 6.4 NW 11 13 6 7 1020.3 1016.4 0.0
24/05:00am 22.2 19.8 11.3 50 6.3 NW 15 17 8 9 1020.0 1016.2 0.0
24/04:30am 22.2 19.8 11.3 50 6.3 NW 15 19 8 10 1019.9 1016.1 0.0
24/04:00am 22.1 19.2 10.9 49 6.4 NW 17 20 9 11 1019.9 1016.1 0.0
24/03:30am 22.3 19.8 11.1 49 6.4 NW 15 17 8 9 1020.2 1016.3 0.0
24/03:00am 22.1 19.6 10.9 49 6.4 NW 15 17 8 9 1020.3 1016.4 0.0
24/02:30am 22.3 20.0 10.5 47 6.7 NW 13 17 7 9 1020.5 1016.6 0.0
24/02:00am 24.5 24.7 10.4 41 8.1 CALM 0 0 0 0 1020.7 1016.9 0.0
24/01:30am 23.9 23.1 10.9 44 7.5 E 6 9 3 5 1020.9 1017.1 0.0
24/01:00am 23.2 20.4 11.3 47 6.9 ESE 17 19 9 10 1020.8 1017.0 0.0
24/12:30am 23.1 20.3 11.2 47 6.9 ESE 17 19 9 10 1020.9 1017.1 0.0
24/12:00am 23.1 20.3 11.5 48 6.7 ESE 17 19 9 10 1021.0 1017.2 0.0
 
Date/Time
EDT
Temp
°C
App
Temp
°C
Dew
Point
°C
Rel
Hum
%
Delta-T
°C
Wind Press
QNH
hPa
Press
MSL
hPa
Rain since
9am
mm
Dir  Spd
km/h
Gust
km/h
Spd
kts
Gust
kts
23/11:30pm 22.9 20.2 11.6 49 6.6 ESE 17 20 9 11 1021.0 1017.2 0.0
23/11:00pm 23.3 20.5 11.4 47 6.9 SE 17 24 9 13 1021.1 1017.3 0.0
23/10:30pm 23.8 20.5 11.5 46 7.2 SE 20 24 11 13 1021.1 1017.3 0.0
23/10:00pm 24.6 21.0 11.9 45 7.4 SE 22 26 12 14 1021.2 1017.4 0.0
23/09:30pm 25.3 21.8 12.2 44 7.8 SE 22 28 12 15 1021.1 1017.3 0.0
23/09:00pm 25.8 22.6 11.9 42 8.2 SE 20 30 11 16 1020.9 1017.1 0.0
23/08:30pm 26.3 23.4 9.6 35 9.5 SE 15 24 8 13 1020.8 1017.0 0.0
23/08:00pm 27.3 25.4 7.7 29 10.8 ESE 7 11 4 6 1020.6 1016.8 0.0
23/07:30pm 28.0 25.3 7.3 27 11.4 SSE 11 15 6 8 1020.4 1016.5 0.0
23/07:00pm 28.8 26.1 7.4 26 11.9 SSE 11 15 6 8 1020.2 1016.3 0.0
23/06:30pm 29.5 25.7 7.4 25 12.3 SE 17 20 9 11 1020.0 1016.2 0.0
23/06:00pm 30.3 26.7 6.9 23 13.0 SSE 15 22 8 12 1019.8 1016.0 0.0
23/05:30pm 30.6 28.3 8.9 26 12.5 SE 11 19 6 10 1019.9 1016.1 0.0
23/05:00pm 30.9 28.1 8.6 25 12.8 S 13 22 7 12 1019.9 1016.1 0.0
23/04:30pm 30.9 28.0 9.7 27 12.4 SE 15 24 8 13 1020.0 1016.2 0.0
23/04:00pm 31.3 28.4 9.5 26 12.7 SSE 15 19 8 10 1020.2 1016.3 0.0
23/03:30pm 31.5 29.7 10.8 28 12.3 E 11 24 6 13 1020.4 1016.5 0.0
23/03:00pm 30.6 27.7 9.5 27 12.2 SE 15 26 8 14 1020.7 1016.9 0.0
23/02:30pm 29.1 25.7 9.3 29 11.4 E 17 24 9 13 1020.9 1017.1 0.0
23/02:00pm 31.5 29.8 12.3 31 11.7 SE 13 28 7 15 1021.2 1017.4 0.0
23/01:30pm 30.3 28.0 10.3 29 11.7 SSE 13 20 7 11 1021.5 1017.7 0.0
23/01:00pm 29.4 29.1 14.4 40 9.3 W 9 17 5 9 1021.8 1018.0 0.0
23/12:30pm 28.6 27.8 15.2 44 8.4 WNW 13 24 7 13 1022.1 1018.3 0.0
23/12:00pm 27.4 26.0 14.4 45 8.0 WNW 15 24 8 13 1022.2 1018.4 0.0
23/11:30am 27.1 26.7 14.1 44 8.0 N 9 15 5 8 1022.6 1018.8 0.0
23/11:00am 25.8 24.1 13.6 47 7.4 NW 15 20 8 11 1022.8 1019.0 0.0
23/10:30am 25.4 23.5 14.2 50 6.9 NNW 17 22 9 12 1023.1 1019.3 0.0
23/10:00am 24.1 21.6 14.2 54 6.0 NW 20 24 11 13 1022.8 1019.0 0.0
23/09:30am 23.4 20.9 13.6 54 5.9 NW 19 20 10 11 1022.7 1018.9 0.0
23/09:00am 22.7 20.8 14.3 59 5.1 NW 17 20 9 11 1022.5 1018.7 0.0
23/08:30am 21.5 20.5 14.6 65 4.2 NW 13 15 7 8 1022.4 1018.6 0.0
23/08:00am 20.6 20.2 14.0 66 3.9 WNW 9 11 5 6 1022.0 1018.2 0.0
23/07:30am 20.5 20.6 13.9 66 3.9 NW 6 7 3 4 1021.7 1017.8 0.0
23/07:00am 19.9 19.7 13.6 67 3.7 NW 7 9 4 5 1021.5 1017.7 0.0
23/06:30am 19.9 19.7 13.6 67 3.7 WNW 7 9 4 5 1021.3 1017.5 0.0
23/06:00am 19.9 19.9 13.6 67 3.7 WNW 6 7 3 4 1021.1 1017.3 0.0
23/05:30am 19.9 19.3 13.6 67 3.7 WNW 9 15 5 8 1020.9 1017.1 0.0
23/05:00am 18.9 16.8 13.7 72 3.1 WNW 17 19 9 10 1020.7 1016.9 0.0
23/04:30am 19.0 16.8 13.2 69 3.4 WNW 17 19 9 10 1020.6 1016.8 0.0
23/04:00am 19.2 16.5 12.9 67 3.7 NW 19 20 10 11 1020.5 1016.6 0.0
23/03:30am 20.1 18.5 12.8 63 4.3 WNW 13 17 7 9 1020.5 1016.6 0.0
23/03:00am 22.0 21.3 13.1 57 5.3 WNW 9 13 5 7 1020.4 1016.5 0.0
23/02:30am 20.5 19.1 13.5 64 4.2 WNW 13 15 7 8 1020.7 1016.9 0.0
23/02:00am 21.5 22.2 13.4 60 4.8 SSE 2 7 1 4 1020.7 1016.9 0.0
23/01:30am 21.0 20.7 14.4 66 4.0 ESE 9 11 5 6 1020.9 1017.1 0.0
23/01:00am 20.3 19.2 14.4 69 3.5 ESE 13 15 7 8 1021.0 1017.2 0.0
23/12:30am 20.0 18.2 14.4 70 3.4 ESE 17 19 9 10 1021.1 1017.3 0.0
23/12:00am 20.5 19.0 14.2 67 3.8 ESE 15 17 8 9 1021.2 1017.4 0.0
 
Date/Time
EDT
Temp
°C
App
Temp
°C
Dew
Point
°C
Rel
Hum
%
Delta-T
°C
Wind Press
QNH
hPa
Press
MSL
hPa
Rain since
9am
mm
Dir  Spd
km/h
Gust
km/h
Spd
kts
Gust
kts
22/11:30pm 20.6 18.6 13.8 65 4.1 ESE 17 19 9 10 1021.2 1017.4 0.0
22/11:00pm 21.1 19.0 13.5 62 4.5 ESE 17 20 9 11 1021.4 1017.6 0.0
22/10:30pm 21.3 19.0 11.6 54 5.6 ESE 15 19 8 10 1021.4 1017.6 0.0
22/10:00pm 22.6 19.3 11.7 50 6.3 SE 20 24 11 13 1021.1 1017.3 0.0
22/09:30pm 23.6 19.8 9.9 42 7.7 SE 20 26 11 14 1020.8 1017.0 0.0
22/09:00pm 24.4 20.3 8.0 35 9.0 SE 19 24 10 13 1020.4 1016.5 0.0
22/08:30pm 24.7 21.0 7.8 34 9.3 SE 17 22 9 12 1020.3 1016.4 0.0
22/08:00pm 25.4 21.9 7.1 31 9.9 SSE 15 19 8 10 1019.8 1016.0 0.0
22/07:30pm 26.3 23.1 6.9 29 10.6 S 13 17 7 9 1019.5 1015.7 0.0
22/07:00pm 26.9 23.8 7.4 29 10.7 SSE 13 17 7 9 1019.1 1015.2 0.0
22/06:30pm 28.0 25.4 7.8 28 11.3 SE 11 17 6 9 1019.0 1015.1 0.0
22/06:00pm 28.8 27.1 7.4 26 11.9 ESE 6 9 3 5 1019.1 1015.2 0.0
22/05:30pm 29.2 27.0 7.7 26 12.0 SSE 9 13 5 7 1019.0 1015.1 0.0
22/05:00pm 29.9 28.2 8.3 26 12.2 SE 7 13 4 7 1019.0 1015.1 0.0
22/04:30pm 29.8 27.8 8.8 27 12.0 ESE 9 17 5 9 1019.3 1015.5 0.0
22/04:00pm 29.0 26.0 9.2 29 11.3 SE 15 20 8 11 1019.6 1015.8 0.0
22/03:30pm 28.9 26.2 9.1 29 11.3 SSE 13 22 7 12 1020.0 1016.2 0.0

Other Formats:

Comma delimited format used in spreadsheet applications
http://www.bom.gov.au/fwo/IDN60801/IDN60801.95747.axf

JavaScript Object Notation format (JSON) in row-major order
http://www.bom.gov.au/fwo/IDN60801/IDN60801.95747.json